sensor_id;sensor_type;location;lat;lon;timestamp;P1;durP1;ratioP1;P2;durP2;ratioP2
43118;SDS011;28729;49.838;8.650;2023-09-19T00:03:56;4.75;;;1.20;;
43118;SDS011;28729;49.838;8.650;2023-09-19T00:07:59;3.15;;;1.20;;
43118;SDS011;28729;49.838;8.650;2023-09-19T00:12:02;3.95;;;1.42;;
43118;SDS011;28729;49.838;8.650;2023-09-19T00:16:09;5.53;;;1.70;;
43118;SDS011;28729;49.838;8.650;2023-09-19T00:20:13;4.43;;;1.30;;
43118;SDS011;28729;49.838;8.650;2023-09-19T00:24:19;3.08;;;1.38;;
43118;SDS011;28729;49.838;8.650;2023-09-19T00:28:20;2.92;;;1.30;;
43118;SDS011;28729;49.838;8.650;2023-09-19T00:32:23;6.55;;;1.67;;
43118;SDS011;28729;49.838;8.650;2023-09-19T00:36:25;2.63;;;1.30;;
43118;SDS011;28729;49.838;8.650;2023-09-19T00:40:27;2.55;;;1.08;;
43118;SDS011;28729;49.838;8.650;2023-09-19T00:44:29;6.55;;;1.67;;
43118;SDS011;28729;49.838;8.650;2023-09-19T00:48:31;3.35;;;1.10;;
43118;SDS011;28729;49.838;8.650;2023-09-19T00:52:37;4.95;;;1.38;;
43118;SDS011;28729;49.838;8.650;2023-09-19T00:56:40;5.10;;;1.75;;
43118;SDS011;28729;49.838;8.650;2023-09-19T01:04:46;5.13;;;1.27;;
43118;SDS011;28729;49.838;8.650;2023-09-19T02:20:50;4.53;;;1.80;;
43118;SDS011;28729;49.838;8.650;2023-09-19T02:24:54;4.38;;;1.90;;
43118;SDS011;28729;49.838;8.650;2023-09-19T02:29:00;4.32;;;1.80;;
43118;SDS011;28729;49.838;8.650;2023-09-19T02:33:03;6.03;;;2.22;;
43118;SDS011;28729;49.838;8.650;2023-09-19T02:37:05;4.60;;;2.28;;
43118;SDS011;28729;49.838;8.650;2023-09-19T02:41:08;3.70;;;2.10;;
43118;SDS011;28729;49.838;8.650;2023-09-19T02:45:12;6.68;;;1.98;;
43118;SDS011;28729;49.838;8.650;2023-09-19T02:49:15;6.57;;;2.17;;
43118;SDS011;28729;49.838;8.650;2023-09-19T02:57:21;4.28;;;2.00;;
43118;SDS011;28729;49.838;8.650;2023-09-19T03:01:25;6.55;;;2.35;;
43118;SDS011;28729;49.838;8.650;2023-09-19T03:05:28;11.43;;;2.70;;
43118;SDS011;28729;49.838;8.650;2023-09-19T03:09:33;5.43;;;2.33;;
43118;SDS011;28729;49.838;8.650;2023-09-19T03:13:35;4.17;;;2.03;;
43118;SDS011;28729;49.838;8.650;2023-09-19T03:17:43;6.45;;;2.83;;
43118;SDS011;28729;49.838;8.650;2023-09-19T03:21:47;8.20;;;2.58;;
43118;SDS011;28729;49.838;8.650;2023-09-19T03:25:51;4.75;;;2.45;;
43118;SDS011;28729;49.838;8.650;2023-09-19T03:29:54;6.25;;;2.70;;
43118;SDS011;28729;49.838;8.650;2023-09-19T03:33:56;4.60;;;2.50;;
43118;SDS011;28729;49.838;8.650;2023-09-19T03:37:58;4.45;;;2.70;;
43118;SDS011;28729;49.838;8.650;2023-09-19T03:42:01;7.95;;;3.25;;
43118;SDS011;28729;49.838;8.650;2023-09-19T03:46:05;5.75;;;2.78;;
43118;SDS011;28729;49.838;8.650;2023-09-19T03:50:11;7.38;;;2.78;;
43118;SDS011;28729;49.838;8.650;2023-09-19T03:54:13;5.65;;;3.10;;
43118;SDS011;28729;49.838;8.650;2023-09-19T03:58:16;5.72;;;3.30;;
43118;SDS011;28729;49.838;8.650;2023-09-19T04:02:19;8.23;;;3.40;;
43118;SDS011;28729;49.838;8.650;2023-09-19T04:06:25;4.75;;;3.13;;
43118;SDS011;28729;49.838;8.650;2023-09-19T04:10:28;6.13;;;3.22;;
43118;SDS011;28729;49.838;8.650;2023-09-19T04:14:30;5.35;;;2.88;;
43118;SDS011;28729;49.838;8.650;2023-09-19T04:18:32;5.13;;;2.92;;
43118;SDS011;28729;49.838;8.650;2023-09-19T04:22:39;9.18;;;3.63;;
43118;SDS011;28729;49.838;8.650;2023-09-19T04:26:41;9.38;;;4.05;;
43118;SDS011;28729;49.838;8.650;2023-09-19T04:30:44;7.75;;;3.30;;
43118;SDS011;28729;49.838;8.650;2023-09-19T04:34:46;10.50;;;4.18;;
43118;SDS011;28729;49.838;8.650;2023-09-19T04:38:51;11.63;;;4.35;;
43118;SDS011;28729;49.838;8.650;2023-09-19T04:42:56;11.65;;;4.72;;
43118;SDS011;28729;49.838;8.650;2023-09-19T04:51:01;5.40;;;2.83;;
43118;SDS011;28729;49.838;8.650;2023-09-19T04:55:03;6.63;;;4.07;;
43118;SDS011;28729;49.838;8.650;2023-09-19T04:59:06;9.75;;;4.30;;
43118;SDS011;28729;49.838;8.650;2023-09-19T05:07:17;7.60;;;4.80;;
43118;SDS011;28729;49.838;8.650;2023-09-19T05:11:19;8.77;;;5.07;;
43118;SDS011;28729;49.838;8.650;2023-09-19T05:15:23;8.88;;;5.00;;
43118;SDS011;28729;49.838;8.650;2023-09-19T05:19:25;9.15;;;4.63;;
43118;SDS011;28729;49.838;8.650;2023-09-19T05:23:26;10.27;;;4.78;;
43118;SDS011;28729;49.838;8.650;2023-09-19T05:27:28;8.57;;;4.77;;
43118;SDS011;28729;49.838;8.650;2023-09-19T05:31:32;8.73;;;4.88;;
43118;SDS011;28729;49.838;8.650;2023-09-19T05:35:34;8.70;;;4.70;;
43118;SDS011;28729;49.838;8.650;2023-09-19T05:39:39;10.57;;;4.32;;
43118;SDS011;28729;49.838;8.650;2023-09-19T05:43:41;8.15;;;4.80;;
43118;SDS011;28729;49.838;8.650;2023-09-19T05:47:44;7.65;;;4.25;;
43118;SDS011;28729;49.838;8.650;2023-09-19T05:51:47;8.27;;;4.05;;
43118;SDS011;28729;49.838;8.650;2023-09-19T05:55:49;7.70;;;4.45;;
43118;SDS011;28729;49.838;8.650;2023-09-19T05:59:52;8.57;;;4.32;;
43118;SDS011;28729;49.838;8.650;2023-09-19T06:03:53;11.88;;;4.28;;
43118;SDS011;28729;49.838;8.650;2023-09-19T06:12:02;5.63;;;3.60;;
43118;SDS011;28729;49.838;8.650;2023-09-19T06:16:06;7.78;;;4.60;;
43118;SDS011;28729;49.838;8.650;2023-09-19T06:20:08;8.23;;;4.30;;
43118;SDS011;28729;49.838;8.650;2023-09-19T06:24:16;6.47;;;4.00;;
43118;SDS011;28729;49.838;8.650;2023-09-19T06:28:21;7.15;;;3.80;;
43118;SDS011;28729;49.838;8.650;2023-09-19T06:32:27;9.52;;;4.15;;
43118;SDS011;28729;49.838;8.650;2023-09-19T06:36:29;5.93;;;4.00;;
43118;SDS011;28729;49.838;8.650;2023-09-19T06:40:33;8.07;;;3.55;;
43118;SDS011;28729;49.838;8.650;2023-09-19T06:44:35;8.18;;;3.85;;
43118;SDS011;28729;49.838;8.650;2023-09-19T06:48:38;7.88;;;3.70;;
43118;SDS011;28729;49.838;8.650;2023-09-19T06:52:41;6.25;;;3.63;;
43118;SDS011;28729;49.838;8.650;2023-09-19T06:56:43;10.38;;;4.38;;
43118;SDS011;28729;49.838;8.650;2023-09-19T07:00:45;10.82;;;3.78;;
43118;SDS011;28729;49.838;8.650;2023-09-19T07:04:48;13.40;;;4.45;;
43118;SDS011;28729;49.838;8.650;2023-09-19T07:08:51;5.70;;;3.15;;
43118;SDS011;28729;49.838;8.650;2023-09-19T07:12:54;10.03;;;3.00;;
43118;SDS011;28729;49.838;8.650;2023-09-19T07:16:57;9.73;;;2.97;;
43118;SDS011;28729;49.838;8.650;2023-09-19T07:21:01;6.95;;;3.33;;
43118;SDS011;28729;49.838;8.650;2023-09-19T07:25:06;9.60;;;2.70;;
43118;SDS011;28729;49.838;8.650;2023-09-19T07:29:08;7.78;;;2.83;;
43118;SDS011;28729;49.838;8.650;2023-09-19T07:33:10;4.30;;;2.40;;
43118;SDS011;28729;49.838;8.650;2023-09-19T07:37:15;6.43;;;2.42;;
43118;SDS011;28729;49.838;8.650;2023-09-19T07:41:17;4.32;;;2.55;;
43118;SDS011;28729;49.838;8.650;2023-09-19T07:45:19;5.40;;;2.53;;
43118;SDS011;28729;49.838;8.650;2023-09-19T07:49:20;5.82;;;2.25;;
43118;SDS011;28729;49.838;8.650;2023-09-19T07:53:23;6.70;;;2.72;;
43118;SDS011;28729;49.838;8.650;2023-09-19T07:57:25;6.67;;;2.37;;
43118;SDS011;28729;49.838;8.650;2023-09-19T08:01:26;6.30;;;2.42;;
43118;SDS011;28729;49.838;8.650;2023-09-19T08:05:29;5.53;;;2.45;;
43118;SDS011;28729;49.838;8.650;2023-09-19T08:09:32;7.22;;;2.38;;
43118;SDS011;28729;49.838;8.650;2023-09-19T08:13:35;5.90;;;2.35;;
43118;SDS011;28729;49.838;8.650;2023-09-19T08:17:36;6.30;;;2.40;;
43118;SDS011;28729;49.838;8.650;2023-09-19T08:21:38;7.40;;;2.70;;
43118;SDS011;28729;49.838;8.650;2023-09-19T08:25:40;4.43;;;2.40;;
43118;SDS011;28729;49.838;8.650;2023-09-19T08:29:42;8.80;;;2.40;;
43118;SDS011;28729;49.838;8.650;2023-09-19T08:33:44;9.40;;;2.20;;
43118;SDS011;28729;49.838;8.650;2023-09-19T08:37:58;6.78;;;2.30;;
43118;SDS011;28729;49.838;8.650;2023-09-19T08:42:02;6.22;;;2.20;;
43118;SDS011;28729;49.838;8.650;2023-09-19T08:46:14;4.85;;;2.05;;
43118;SDS011;28729;49.838;8.650;2023-09-19T08:50:19;5.05;;;2.10;;
43118;SDS011;28729;49.838;8.650;2023-09-19T08:54:28;6.13;;;2.25;;
43118;SDS011;28729;49.838;8.650;2023-09-19T08:58:44;5.47;;;2.30;;
43118;SDS011;28729;49.838;8.650;2023-09-19T09:02:58;5.35;;;1.98;;
43118;SDS011;28729;49.838;8.650;2023-09-19T09:07:04;6.85;;;2.15;;
43118;SDS011;28729;49.838;8.650;2023-09-19T09:11:06;6.68;;;1.90;;
43118;SDS011;28729;49.838;8.650;2023-09-19T09:15:09;6.15;;;2.05;;
43118;SDS011;28729;49.838;8.650;2023-09-19T09:19:14;7.68;;;2.20;;
43118;SDS011;28729;49.838;8.650;2023-09-19T09:23:23;6.95;;;2.05;;
43118;SDS011;28729;49.838;8.650;2023-09-19T09:27:26;6.65;;;2.60;;
43118;SDS011;28729;49.838;8.650;2023-09-19T09:31:28;9.47;;;2.33;;
43118;SDS011;28729;49.838;8.650;2023-09-19T09:39:33;5.82;;;1.60;;
43118;SDS011;28729;49.838;8.650;2023-09-19T09:43:37;7.60;;;1.83;;
43118;SDS011;28729;49.838;8.650;2023-09-19T09:47:44;5.18;;;1.60;;
43118;SDS011;28729;49.838;8.650;2023-09-19T09:52:00;6.10;;;1.63;;
43118;SDS011;28729;49.838;8.650;2023-09-19T09:56:33;6.15;;;1.80;;
43118;SDS011;28729;49.838;8.650;2023-09-19T10:00:36;8.40;;;2.20;;
43118;SDS011;28729;49.838;8.650;2023-09-19T10:04:58;5.18;;;1.48;;
43118;SDS011;28729;49.838;8.650;2023-09-19T10:09:09;6.10;;;2.20;;
43118;SDS011;28729;49.838;8.650;2023-09-19T10:17:36;5.45;;;1.75;;
43118;SDS011;28729;49.838;8.650;2023-09-19T10:21:45;5.35;;;1.70;;
43118;SDS011;28729;49.838;8.650;2023-09-19T10:25:48;6.32;;;1.90;;
43118;SDS011;28729;49.838;8.650;2023-09-19T10:29:51;5.15;;;1.60;;
43118;SDS011;28729;49.838;8.650;2023-09-19T10:33:57;5.82;;;2.17;;
43118;SDS011;28729;49.838;8.650;2023-09-19T10:38:00;6.50;;;1.73;;
43118;SDS011;28729;49.838;8.650;2023-09-19T10:42:04;7.65;;;1.67;;
43118;SDS011;28729;49.838;8.650;2023-09-19T10:46:07;11.40;;;2.20;;
43118;SDS011;28729;49.838;8.650;2023-09-19T10:50:21;11.57;;;2.40;;
43118;SDS011;28729;49.838;8.650;2023-09-19T10:54:29;8.23;;;1.77;;
43118;SDS011;28729;49.838;8.650;2023-09-19T10:58:35;7.07;;;1.90;;
43118;SDS011;28729;49.838;8.650;2023-09-19T11:02:41;5.38;;;1.95;;
43118;SDS011;28729;49.838;8.650;2023-09-19T11:06:43;5.80;;;1.77;;
43118;SDS011;28729;49.838;8.650;2023-09-19T11:11:01;7.70;;;1.95;;
43118;SDS011;28729;49.838;8.650;2023-09-19T11:15:05;6.10;;;1.83;;
43118;SDS011;28729;49.838;8.650;2023-09-19T11:19:12;6.60;;;1.90;;
43118;SDS011;28729;49.838;8.650;2023-09-19T11:23:18;8.85;;;2.00;;
43118;SDS011;28729;49.838;8.650;2023-09-19T11:27:24;7.53;;;1.60;;
43118;SDS011;28729;49.838;8.650;2023-09-19T11:31:41;5.50;;;1.60;;
43118;SDS011;28729;49.838;8.650;2023-09-19T11:36:09;5.78;;;2.13;;
43118;SDS011;28729;49.838;8.650;2023-09-19T11:40:27;9.32;;;1.90;;
43118;SDS011;28729;49.838;8.650;2023-09-19T11:44:34;5.85;;;1.75;;
43118;SDS011;28729;49.838;8.650;2023-09-19T11:48:38;5.80;;;1.85;;
43118;SDS011;28729;49.838;8.650;2023-09-19T11:52:43;6.60;;;1.38;;
43118;SDS011;28729;49.838;8.650;2023-09-19T11:56:46;4.57;;;1.83;;
43118;SDS011;28729;49.838;8.650;2023-09-19T12:00:55;8.63;;;2.38;;
43118;SDS011;28729;49.838;8.650;2023-09-19T12:05:00;6.88;;;1.95;;
43118;SDS011;28729;49.838;8.650;2023-09-19T12:09:02;5.60;;;1.60;;
43118;SDS011;28729;49.838;8.650;2023-09-19T12:13:08;5.20;;;1.80;;
43118;SDS011;28729;49.838;8.650;2023-09-19T12:17:11;5.60;;;1.80;;
43118;SDS011;28729;49.838;8.650;2023-09-19T12:21:24;7.32;;;1.67;;
43118;SDS011;28729;49.838;8.650;2023-09-19T12:25:40;4.28;;;1.80;;
43118;SDS011;28729;49.838;8.650;2023-09-19T12:29:46;6.95;;;2.15;;
43118;SDS011;28729;49.838;8.650;2023-09-19T12:33:55;4.53;;;1.75;;
43118;SDS011;28729;49.838;8.650;2023-09-19T12:37:58;4.97;;;1.83;;
43118;SDS011;28729;49.838;8.650;2023-09-19T12:42:00;4.13;;;1.63;;
43118;SDS011;28729;49.838;8.650;2023-09-19T12:46:05;7.28;;;1.85;;
43118;SDS011;28729;49.838;8.650;2023-09-19T12:58:23;4.38;;;1.40;;
43118;SDS011;28729;49.838;8.650;2023-09-19T13:02:25;6.15;;;1.58;;
43118;SDS011;28729;49.838;8.650;2023-09-19T13:06:36;9.10;;;1.58;;
43118;SDS011;28729;49.838;8.650;2023-09-19T13:15:12;3.40;;;1.55;;
43118;SDS011;28729;49.838;8.650;2023-09-19T13:28:27;6.65;;;1.50;;
43118;SDS011;28729;49.838;8.650;2023-09-19T13:36:33;3.20;;;1.45;;
43118;SDS011;28729;49.838;8.650;2023-09-19T13:40:35;5.63;;;1.43;;
43118;SDS011;28729;49.838;8.650;2023-09-19T13:44:37;4.88;;;1.45;;
43118;SDS011;28729;49.838;8.650;2023-09-19T13:48:39;5.55;;;1.67;;
43118;SDS011;28729;49.838;8.650;2023-09-19T13:52:41;3.45;;;1.25;;
43118;SDS011;28729;49.838;8.650;2023-09-19T14:00:45;3.50;;;1.33;;
43118;SDS011;28729;49.838;8.650;2023-09-19T14:04:47;3.35;;;1.42;;
43118;SDS011;28729;49.838;8.650;2023-09-19T14:08:50;3.83;;;1.35;;
43118;SDS011;28729;49.838;8.650;2023-09-19T14:12:52;4.45;;;1.45;;
43118;SDS011;28729;49.838;8.650;2023-09-19T14:16:54;6.97;;;1.20;;
43118;SDS011;28729;49.838;8.650;2023-09-19T14:24:58;3.47;;;1.30;;
43118;SDS011;28729;49.838;8.650;2023-09-19T14:29:01;4.40;;;1.40;;
43118;SDS011;28729;49.838;8.650;2023-09-19T14:33:03;3.08;;;2.25;;
43118;SDS011;28729;49.838;8.650;2023-09-19T14:37:06;7.57;;;1.40;;
43118;SDS011;28729;49.838;8.650;2023-09-19T14:41:08;3.65;;;1.40;;
43118;SDS011;28729;49.838;8.650;2023-09-19T14:45:10;5.00;;;1.67;;
43118;SDS011;28729;49.838;8.650;2023-09-19T14:49:13;4.20;;;1.33;;
43118;SDS011;28729;49.838;8.650;2023-09-19T14:53:18;3.95;;;1.83;;
43118;SDS011;28729;49.838;8.650;2023-09-19T14:57:20;3.17;;;1.30;;
43118;SDS011;28729;49.838;8.650;2023-09-19T15:01:22;3.37;;;1.30;;
43118;SDS011;28729;49.838;8.650;2023-09-19T15:05:24;4.32;;;1.20;;
43118;SDS011;28729;49.838;8.650;2023-09-19T15:09:26;4.13;;;1.13;;
43118;SDS011;28729;49.838;8.650;2023-09-19T15:13:28;2.13;;;0.95;;
43118;SDS011;28729;49.838;8.650;2023-09-19T15:17:30;4.63;;;1.30;;
43118;SDS011;28729;49.838;8.650;2023-09-19T15:21:32;2.47;;;1.13;;
43118;SDS011;28729;49.838;8.650;2023-09-19T15:25:34;4.87;;;1.23;;
43118;SDS011;28729;49.838;8.650;2023-09-19T15:29:36;3.83;;;1.30;;
43118;SDS011;28729;49.838;8.650;2023-09-19T15:33:42;2.53;;;0.90;;
43118;SDS011;28729;49.838;8.650;2023-09-19T15:37:44;3.03;;;1.07;;
43118;SDS011;28729;49.838;8.650;2023-09-19T15:41:46;3.97;;;1.10;;
43118;SDS011;28729;49.838;8.650;2023-09-19T15:45:52;6.63;;;1.35;;
43118;SDS011;28729;49.838;8.650;2023-09-19T15:49:55;2.60;;;1.00;;
43118;SDS011;28729;49.838;8.650;2023-09-19T15:53:57;2.93;;;1.10;;
43118;SDS011;28729;49.838;8.650;2023-09-19T15:58:01;2.88;;;1.30;;
43118;SDS011;28729;49.838;8.650;2023-09-19T16:02:03;3.20;;;1.30;;
43118;SDS011;28729;49.838;8.650;2023-09-19T16:06:09;4.25;;;1.13;;
43118;SDS011;28729;49.838;8.650;2023-09-19T16:10:20;3.55;;;1.00;;
43118;SDS011;28729;49.838;8.650;2023-09-19T16:14:24;1.98;;;1.13;;
43118;SDS011;28729;49.838;8.650;2023-09-19T16:18:26;4.32;;;1.48;;
43118;SDS011;28729;49.838;8.650;2023-09-19T16:22:28;2.30;;;0.83;;
43118;SDS011;28729;49.838;8.650;2023-09-19T16:26:29;4.70;;;1.27;;
43118;SDS011;28729;49.838;8.650;2023-09-19T16:30:32;4.38;;;1.00;;
43118;SDS011;28729;49.838;8.650;2023-09-19T16:34:37;3.40;;;1.33;;
43118;SDS011;28729;49.838;8.650;2023-09-19T16:38:39;2.38;;;0.85;;
43118;SDS011;28729;49.838;8.650;2023-09-19T16:46:43;3.85;;;1.55;;
43118;SDS011;28729;49.838;8.650;2023-09-19T16:50:45;9.10;;;3.22;;
43118;SDS011;28729;49.838;8.650;2023-09-19T16:54:47;3.33;;;1.07;;
43118;SDS011;28729;49.838;8.650;2023-09-19T16:58:49;2.78;;;1.13;;
43118;SDS011;28729;49.838;8.650;2023-09-19T17:02:53;2.58;;;1.30;;
43118;SDS011;28729;49.838;8.650;2023-09-19T17:06:57;3.50;;;0.88;;
43118;SDS011;28729;49.838;8.650;2023-09-19T17:15:04;4.18;;;1.20;;
43118;SDS011;28729;49.838;8.650;2023-09-19T17:19:06;3.90;;;1.20;;
43118;SDS011;28729;49.838;8.650;2023-09-19T17:23:10;2.22;;;0.90;;
43118;SDS011;28729;49.838;8.650;2023-09-19T17:27:11;2.33;;;1.20;;
43118;SDS011;28729;49.838;8.650;2023-09-19T17:31:15;2.27;;;1.00;;
43118;SDS011;28729;49.838;8.650;2023-09-19T17:35:19;4.70;;;1.05;;
43118;SDS011;28729;49.838;8.650;2023-09-19T17:39:21;2.17;;;1.00;;
43118;SDS011;28729;49.838;8.650;2023-09-19T17:43:23;2.05;;;0.80;;
43118;SDS011;28729;49.838;8.650;2023-09-19T17:47:25;3.40;;;1.35;;
43118;SDS011;28729;49.838;8.650;2023-09-19T17:51:27;2.53;;;1.08;;
43118;SDS011;28729;49.838;8.650;2023-09-19T17:59:31;2.45;;;0.90;;
43118;SDS011;28729;49.838;8.650;2023-09-19T18:03:33;2.07;;;1.00;;
43118;SDS011;28729;49.838;8.650;2023-09-19T18:07:35;2.57;;;1.10;;
43118;SDS011;28729;49.838;8.650;2023-09-19T18:11:37;7.00;;;1.57;;
43118;SDS011;28729;49.838;8.650;2023-09-19T18:15:38;5.40;;;1.10;;
43118;SDS011;28729;49.838;8.650;2023-09-19T18:19:41;1.92;;;0.95;;
43118;SDS011;28729;49.838;8.650;2023-09-19T18:23:43;2.90;;;1.40;;
43118;SDS011;28729;49.838;8.650;2023-09-19T18:27:47;2.92;;;1.42;;
43118;SDS011;28729;49.838;8.650;2023-09-19T18:31:49;3.85;;;1.15;;
43118;SDS011;28729;49.838;8.650;2023-09-19T18:35:51;2.47;;;1.00;;
43118;SDS011;28729;49.838;8.650;2023-09-19T18:39:53;2.10;;;1.02;;
43118;SDS011;28729;49.838;8.650;2023-09-19T18:43:55;3.23;;;1.07;;
43118;SDS011;28729;49.838;8.650;2023-09-19T18:47:58;4.97;;;1.60;;
43118;SDS011;28729;49.838;8.650;2023-09-19T18:52:00;4.65;;;1.45;;
43118;SDS011;28729;49.838;8.650;2023-09-19T18:56:11;4.03;;;1.23;;
43118;SDS011;28729;49.838;8.650;2023-09-19T19:00:17;2.40;;;1.10;;
43118;SDS011;28729;49.838;8.650;2023-09-19T19:04:21;3.58;;;1.40;;
43118;SDS011;28729;49.838;8.650;2023-09-19T19:08:26;2.85;;;1.30;;
43118;SDS011;28729;49.838;8.650;2023-09-19T19:12:29;4.95;;;1.40;;
43118;SDS011;28729;49.838;8.650;2023-09-19T19:16:32;4.20;;;1.38;;
43118;SDS011;28729;49.838;8.650;2023-09-19T19:20:35;4.68;;;1.75;;
43118;SDS011;28729;49.838;8.650;2023-09-19T19:28:40;1.85;;;1.02;;
43118;SDS011;28729;49.838;8.650;2023-09-19T19:36:44;3.38;;;1.10;;
43118;SDS011;28729;49.838;8.650;2023-09-19T19:40:46;2.45;;;1.27;;
43118;SDS011;28729;49.838;8.650;2023-09-19T19:44:50;3.35;;;1.40;;
43118;SDS011;28729;49.838;8.650;2023-09-19T19:48:55;4.10;;;1.38;;
43118;SDS011;28729;49.838;8.650;2023-09-19T19:52:57;5.78;;;1.20;;
43118;SDS011;28729;49.838;8.650;2023-09-19T19:56:59;3.15;;;1.15;;
43118;SDS011;28729;49.838;8.650;2023-09-19T20:01:01;4.45;;;1.17;;
43118;SDS011;28729;49.838;8.650;2023-09-19T20:05:03;4.40;;;1.40;;
43118;SDS011;28729;49.838;8.650;2023-09-19T20:09:08;3.90;;;1.10;;
43118;SDS011;28729;49.838;8.650;2023-09-19T20:13:11;1.65;;;1.00;;
43118;SDS011;28729;49.838;8.650;2023-09-19T20:17:15;4.05;;;1.40;;
43118;SDS011;28729;49.838;8.650;2023-09-19T20:21:17;8.07;;;1.20;;
43118;SDS011;28729;49.838;8.650;2023-09-19T20:25:18;2.00;;;1.20;;
43118;SDS011;28729;49.838;8.650;2023-09-19T20:29:22;2.75;;;1.08;;
43118;SDS011;28729;49.838;8.650;2023-09-19T20:33:24;1.75;;;1.02;;
43118;SDS011;28729;49.838;8.650;2023-09-19T20:37:25;3.38;;;1.45;;
43118;SDS011;28729;49.838;8.650;2023-09-19T20:41:27;3.65;;;1.30;;
43118;SDS011;28729;49.838;8.650;2023-09-19T20:45:29;2.47;;;1.63;;
43118;SDS011;28729;49.838;8.650;2023-09-19T20:49:31;5.00;;;1.00;;
43118;SDS011;28729;49.838;8.650;2023-09-19T20:53:37;3.20;;;1.23;;
43118;SDS011;28729;49.838;8.650;2023-09-19T20:57:39;2.38;;;1.20;;
43118;SDS011;28729;49.838;8.650;2023-09-19T21:01:41;1.98;;;1.20;;
43118;SDS011;28729;49.838;8.650;2023-09-19T21:05:47;2.33;;;1.33;;
43118;SDS011;28729;49.838;8.650;2023-09-19T21:09:49;1.75;;;1.00;;
43118;SDS011;28729;49.838;8.650;2023-09-19T21:13:51;4.72;;;1.30;;
43118;SDS011;28729;49.838;8.650;2023-09-19T21:17:54;6.03;;;1.10;;
43118;SDS011;28729;49.838;8.650;2023-09-19T21:21:56;4.95;;;1.80;;
43118;SDS011;28729;49.838;8.650;2023-09-19T21:25:58;3.33;;;1.17;;
43118;SDS011;28729;49.838;8.650;2023-09-19T21:30:00;4.85;;;1.52;;
43118;SDS011;28729;49.838;8.650;2023-09-19T21:34:02;2.42;;;0.82;;
43118;SDS011;28729;49.838;8.650;2023-09-19T21:38:06;2.22;;;1.20;;
43118;SDS011;28729;49.838;8.650;2023-09-19T21:42:08;2.42;;;1.15;;
43118;SDS011;28729;49.838;8.650;2023-09-19T21:46:10;2.40;;;1.07;;
43118;SDS011;28729;49.838;8.650;2023-09-19T21:54:15;2.10;;;1.00;;
43118;SDS011;28729;49.838;8.650;2023-09-19T21:58:17;0.80;;;0.80;;
43118;SDS011;28729;49.838;8.650;2023-09-19T22:02:19;3.20;;;1.30;;
43118;SDS011;28729;49.838;8.650;2023-09-19T22:06:20;3.10;;;1.08;;
43118;SDS011;28729;49.838;8.650;2023-09-19T22:10:22;2.03;;;1.20;;
43118;SDS011;28729;49.838;8.650;2023-09-19T22:14:24;2.00;;;0.90;;
43118;SDS011;28729;49.838;8.650;2023-09-19T22:18:30;3.90;;;1.00;;
43118;SDS011;28729;49.838;8.650;2023-09-19T22:22:32;1.10;;;0.80;;
43118;SDS011;28729;49.838;8.650;2023-09-19T22:26:34;2.10;;;1.00;;
43118;SDS011;28729;49.838;8.650;2023-09-19T22:30:41;5.20;;;1.17;;
43118;SDS011;28729;49.838;8.650;2023-09-19T22:34:48;3.47;;;1.23;;
